WGN531 KLIT-KGPT
Flight info
| Callsign | WGN531 |
|---|---|
| Flight time | N/A |
| Altitude | 35000 |
| Route | MICKE MHZ UCODI |
| Aircraft | MD11/H-SDE1E2E3FGHIJ2J3J4J5M1RWXY/LB1D1 |
Departure
| Time | 2026-04-26 15:54 |
|---|---|
| Airport | Bill & Hillary Clinton National Airport/Adams Field (KLIT) |
Arrival
| Time | N/A |
|---|---|
| Airport | Gulfport Biloxi International Airport (KGPT) |
| Time | Latitude | Longitude | Altitude | Speed | Heading |
|---|---|---|---|---|---|
| 2026-04-26 15:23 | 34.73158 | -92.22190 | 275 ft | 0 kts | 82° |
| 2026-04-26 15:46 | 34.73159 | -92.22169 | 274 ft | 3 kts | 94° |
| 2026-04-26 15:46 | 34.73143 | -92.22143 | 275 ft | 6 kts | 128° |
| 2026-04-26 15:46 | 34.73115 | -92.22123 | 274 ft | 8 kts | 164° |
| 2026-04-26 15:47 | 34.73081 | -92.22142 | 274 ft | 4 kts | 236° |
| 2026-04-26 15:47 | 34.73085 | -92.22218 | 279 ft | 7 kts | 286° |
| 2026-04-26 15:48 | 34.73099 | -92.22268 | 279 ft | 5 kts | 290° |
| 2026-04-26 15:48 | 34.73113 | -92.22312 | 274 ft | 7 kts | 291° |
| 2026-04-26 15:48 | 34.73134 | -92.22380 | 275 ft | 10 kts | 290° |
| 2026-04-26 15:48 | 34.73138 | -92.22465 | 276 ft | 11 kts | 252° |
| 2026-04-26 15:49 | 34.73089 | -92.22544 | 276 ft | 12 kts | 224° |
| 2026-04-26 15:49 | 34.73032 | -92.22614 | 277 ft | 11 kts | 226° |
| 2026-04-26 15:49 | 34.72977 | -92.22685 | 274 ft | 12 kts | 227° |
| 2026-04-26 15:49 | 34.72918 | -92.22760 | 274 ft | 12 kts | 226° |
| 2026-04-26 15:50 | 34.72858 | -92.22835 | 274 ft | 12 kts | 225° |
| 2026-04-26 15:50 | 34.72799 | -92.22909 | 275 ft | 12 kts | 226° |
| 2026-04-26 15:50 | 34.72738 | -92.22986 | 274 ft | 13 kts | 226° |
| 2026-04-26 15:50 | 34.72678 | -92.23064 | 274 ft | 13 kts | 227° |
| 2026-04-26 15:51 | 34.72618 | -92.23142 | 274 ft | 13 kts | 227° |
| 2026-04-26 15:51 | 34.72561 | -92.23213 | 274 ft | 10 kts | 226° |
| 2026-04-26 15:51 | 34.72511 | -92.23277 | 274 ft | 11 kts | 227° |
| 2026-04-26 15:51 | 34.72452 | -92.23354 | 274 ft | 14 kts | 226° |
| 2026-04-26 15:52 | 34.72379 | -92.23447 | 274 ft | 17 kts | 226° |
| 2026-04-26 15:52 | 34.72300 | -92.23549 | 274 ft | 11 kts | 226° |
| 2026-04-26 15:52 | 34.72250 | -92.23610 | 274 ft | 11 kts | 225° |
| 2026-04-26 15:52 | 34.72217 | -92.23654 | 274 ft | 9 kts | 232° |
| 2026-04-26 15:53 | 34.72216 | -92.23724 | 273 ft | 7 kts | 300° |
| 2026-04-26 15:53 | 34.72268 | -92.23750 | 272 ft | 10 kts | 6° |
| 2026-04-26 15:53 | 34.72377 | -92.23645 | 271 ft | 47 kts | 46° |
| 2026-04-26 15:53 | 34.72818 | -92.23080 | 273 ft | 134 kts | 46° |
| 2026-04-26 15:54 | 34.73630 | -92.22085 | 429 ft | 183 kts | 47° |
| 2026-04-26 15:54 | 34.74494 | -92.21013 | 1528 ft | 175 kts | 46° |
| 2026-04-26 15:54 | 34.75390 | -92.19947 | 2366 ft | 185 kts | 47° |
| 2026-04-26 15:54 | 34.76345 | -92.18834 | 3164 ft | 196 kts | 46° |
| 2026-04-26 15:55 | 34.77347 | -92.17655 | 3530 ft | 212 kts | 46° |
| 2026-04-26 15:55 | 34.78487 | -92.16295 | 3916 ft | 247 kts | 46° |
| 2026-04-26 15:55 | 34.79790 | -92.14725 | 4003 ft | 280 kts | 46° |
| 2026-04-26 15:55 | 34.81192 | -92.13028 | 4000 ft | 286 kts | 46° |
| 2026-04-26 15:56 | 34.82603 | -92.11311 | 4002 ft | 286 kts | 46° |
| 2026-04-26 15:56 | 34.84012 | -92.09594 | 3998 ft | 286 kts | 47° |
| 2026-04-26 15:56 | 34.85409 | -92.07893 | 4605 ft | 284 kts | 47° |
| 2026-04-26 15:56 | 34.86831 | -92.06162 | 5642 ft | 291 kts | 47° |
| 2026-04-26 15:57 | 34.87975 | -92.04132 | 6620 ft | 293 kts | 70° |
| 2026-04-26 15:57 | 34.88335 | -92.01718 | 7581 ft | 290 kts | 96° |
| 2026-04-26 15:57 | 34.87833 | -91.99364 | 8490 ft | 288 kts | 121° |
| 2026-04-26 15:57 | 34.87065 | -91.98049 | 9063 ft | 288 kts | 138° |
| 2026-04-26 15:58 | 34.84800 | -91.96424 | 10125 ft | 292 kts | 163° |
| 2026-04-26 15:58 | 34.82751 | -91.95675 | 10285 ft | 323 kts | 167° |
| 2026-04-26 15:58 | 34.80466 | -91.94936 | 10419 ft | 354 kts | 167° |
| 2026-04-26 15:58 | 34.78035 | -91.94158 | 11097 ft | 364 kts | 167° |
| 2026-04-26 15:59 | 34.75556 | -91.93362 | 11937 ft | 371 kts | 167° |
| 2026-04-26 15:59 | 34.73071 | -91.92564 | 12722 ft | 377 kts | 167° |
| 2026-04-26 15:59 | 34.70529 | -91.91650 | 13490 ft | 384 kts | 162° |
| 2026-04-26 15:59 | 34.68007 | -91.90441 | 14142 ft | 394 kts | 157° |
| 2026-04-26 16:00 | 34.65532 | -91.88924 | 14788 ft | 400 kts | 152° |
| 2026-04-26 16:00 | 34.63119 | -91.87194 | 15488 ft | 405 kts | 149° |
| 2026-04-26 16:00 | 34.60738 | -91.85332 | 16176 ft | 410 kts | 147° |
| 2026-04-26 16:00 | 34.58358 | -91.83386 | 16858 ft | 414 kts | 147° |
| 2026-04-26 16:01 | 34.56001 | -91.81421 | 17522 ft | 418 kts | 146° |
| 2026-04-26 16:01 | 34.53594 | -91.79401 | 18192 ft | 422 kts | 146° |
| 2026-04-26 16:01 | 34.51154 | -91.77352 | 18743 ft | 427 kts | 147° |
| 2026-04-26 16:01 | 34.48702 | -91.75298 | 19294 ft | 430 kts | 147° |
| 2026-04-26 16:02 | 34.46223 | -91.73225 | 19812 ft | 434 kts | 148° |
| 2026-04-26 16:02 | 34.43724 | -91.71139 | 20282 ft | 438 kts | 148° |
| 2026-04-26 16:02 | 34.41230 | -91.69061 | 20799 ft | 442 kts | 148° |
| 2026-04-26 16:02 | 34.39513 | -91.67631 | 21176 ft | 444 kts | 148° |
| 2026-04-26 16:03 | 34.36118 | -91.64808 | 21890 ft | 449 kts | 148° |
| 2026-04-26 16:03 | 34.33528 | -91.62656 | 22445 ft | 453 kts | 149° |
| 2026-04-26 16:03 | 34.30917 | -91.60488 | 23002 ft | 456 kts | 149° |
| 2026-04-26 16:03 | 34.28288 | -91.58306 | 23550 ft | 460 kts | 149° |
| 2026-04-26 16:04 | 34.25637 | -91.56108 | 24042 ft | 464 kts | 149° |
| 2026-04-26 16:04 | 34.22973 | -91.53900 | 24552 ft | 467 kts | 149° |
| 2026-04-26 16:04 | 34.20280 | -91.51671 | 25038 ft | 471 kts | 149° |
| 2026-04-26 16:04 | 34.17562 | -91.49425 | 25568 ft | 474 kts | 149° |
| 2026-04-26 16:05 | 34.14859 | -91.47202 | 26073 ft | 477 kts | 149° |
| 2026-04-26 16:05 | 34.12106 | -91.44939 | 26587 ft | 480 kts | 149° |
| 2026-04-26 16:05 | 34.09327 | -91.42653 | 27082 ft | 484 kts | 149° |
| 2026-04-26 16:05 | 34.06528 | -91.40350 | 27578 ft | 487 kts | 149° |
| 2026-04-26 16:06 | 34.03717 | -91.38035 | 28068 ft | 491 kts | 149° |
| 2026-04-26 16:06 | 34.00886 | -91.35704 | 28554 ft | 494 kts | 149° |
| 2026-04-26 16:06 | 33.98039 | -91.33362 | 29029 ft | 497 kts | 149° |
| 2026-04-26 16:06 | 33.95204 | -91.31032 | 29496 ft | 501 kts | 149° |
| 2026-04-26 16:07 | 33.92297 | -91.28645 | 29741 ft | 509 kts | 149° |
| 2026-04-26 16:07 | 33.89358 | -91.26234 | 30098 ft | 513 kts | 149° |
| 2026-04-26 16:07 | 33.86396 | -91.23806 | 30429 ft | 516 kts | 149° |
| 2026-04-26 16:07 | 33.83416 | -91.21363 | 30755 ft | 519 kts | 149° |
| 2026-04-26 16:08 | 33.80424 | -91.18913 | 31139 ft | 520 kts | 149° |
| 2026-04-26 16:08 | 33.78442 | -91.17290 | 31412 ft | 520 kts | 149° |
| 2026-04-26 16:08 | 33.74466 | -91.14039 | 31981 ft | 520 kts | 149° |
| 2026-04-26 16:08 | 33.71469 | -91.11590 | 32382 ft | 519 kts | 150° |
| 2026-04-26 16:09 | 33.68473 | -91.09146 | 32765 ft | 519 kts | 150° |
| 2026-04-26 16:09 | 33.65476 | -91.06704 | 32918 ft | 519 kts | 150° |
| 2026-04-26 16:09 | 33.62481 | -91.04265 | 32957 ft | 520 kts | 150° |
| 2026-04-26 16:10 | 33.56529 | -90.99426 | 32970 ft | 520 kts | 150° |
| 2026-04-26 16:10 | 33.50537 | -90.94562 | 32972 ft | 520 kts | 150° |
| 2026-04-26 16:11 | 33.44522 | -90.89707 | 32951 ft | 520 kts | 150° |
| 2026-04-26 16:11 | 33.38553 | -90.84893 | 32949 ft | 520 kts | 150° |
| 2026-04-26 16:12 | 33.32547 | -90.80046 | 32944 ft | 520 kts | 150° |
| 2026-04-26 16:12 | 33.23590 | -90.72826 | 32719 ft | 512 kts | 150° |
| 2026-04-26 16:13 | 33.21598 | -90.71221 | 32544 ft | 509 kts | 150° |
| 2026-04-26 16:13 | 33.18693 | -90.68883 | 32299 ft | 509 kts | 150° |
| 2026-04-26 16:13 | 33.15753 | -90.66521 | 32042 ft | 509 kts | 150° |
| 2026-04-26 16:13 | 33.12815 | -90.64164 | 31768 ft | 509 kts | 150° |
| 2026-04-26 16:14 | 33.09868 | -90.61801 | 31526 ft | 509 kts | 150° |
| 2026-04-26 16:14 | 33.06917 | -90.59436 | 31285 ft | 509 kts | 150° |
| 2026-04-26 16:14 | 33.01055 | -90.54745 | 30794 ft | 510 kts | 150° |
| 2026-04-26 16:15 | 32.98108 | -90.52388 | 30558 ft | 511 kts | 150° |
| 2026-04-26 16:15 | 32.95150 | -90.50025 | 30320 ft | 511 kts | 150° |
| 2026-04-26 16:15 | 32.92184 | -90.47657 | 30076 ft | 512 kts | 150° |
| 2026-04-26 16:16 | 32.86261 | -90.42935 | 29525 ft | 512 kts | 150° |
| 2026-04-26 16:16 | 32.83365 | -90.40629 | 29262 ft | 512 kts | 150° |
| 2026-04-26 16:16 | 32.80426 | -90.38292 | 29008 ft | 512 kts | 150° |
| 2026-04-26 16:16 | 32.77460 | -90.35942 | 28935 ft | 511 kts | 150° |
| 2026-04-26 16:17 | 32.71575 | -90.31288 | 28919 ft | 509 kts | 150° |
| 2026-04-26 16:17 | 32.65677 | -90.26619 | 28936 ft | 508 kts | 150° |
| 2026-04-26 16:18 | 32.56875 | -90.19657 | 28952 ft | 508 kts | 150° |
| 2026-04-26 16:19 | 32.47956 | -90.12893 | 28970 ft | 505 kts | 155° |
| 2026-04-26 16:19 | 32.41673 | -90.09168 | 28854 ft | 505 kts | 158° |
| 2026-04-26 16:20 | 32.38543 | -90.07415 | 28182 ft | 500 kts | 158° |
| 2026-04-26 16:20 | 32.32343 | -90.03925 | 26630 ft | 486 kts | 158° |
| 2026-04-26 16:20 | 32.29314 | -90.02198 | 25809 ft | 478 kts | 157° |
| 2026-04-26 16:21 | 32.26340 | -90.00492 | 25029 ft | 471 kts | 156° |
| 2026-04-26 16:21 | 32.23413 | -89.98810 | 24210 ft | 463 kts | 156° |
| 2026-04-26 16:21 | 32.20567 | -89.97174 | 23463 ft | 455 kts | 155° |
| 2026-04-26 16:21 | 32.17734 | -89.95546 | 22564 ft | 449 kts | 155° |
| 2026-04-26 16:22 | 32.14934 | -89.93937 | 21672 ft | 442 kts | 155° |
| 2026-04-26 16:22 | 32.12177 | -89.92356 | 20835 ft | 437 kts | 155° |
| 2026-04-26 16:22 | 32.09490 | -89.90815 | 20011 ft | 432 kts | 155° |
| 2026-04-26 16:22 | 32.06799 | -89.89273 | 19199 ft | 427 kts | 155° |
| 2026-04-26 16:23 | 32.04131 | -89.87746 | 18357 ft | 424 kts | 155° |
| 2026-04-26 16:23 | 32.01489 | -89.86234 | 17570 ft | 419 kts | 155° |
| 2026-04-26 16:23 | 31.98869 | -89.84736 | 17115 ft | 419 kts | 155° |
| 2026-04-26 16:23 | 31.96254 | -89.83242 | 16663 ft | 417 kts | 155° |
| 2026-04-26 16:24 | 31.93674 | -89.81768 | 16282 ft | 415 kts | 155° |
| 2026-04-26 16:24 | 31.91078 | -89.80286 | 15907 ft | 413 kts | 155° |
| 2026-04-26 16:24 | 31.88494 | -89.78812 | 15539 ft | 412 kts | 155° |
| 2026-04-26 16:24 | 31.85967 | -89.77371 | 15183 ft | 410 kts | 155° |
| 2026-04-26 16:25 | 31.83397 | -89.75907 | 14823 ft | 409 kts | 156° |
| 2026-04-26 16:25 | 31.80830 | -89.74446 | 14461 ft | 408 kts | 156° |
| 2026-04-26 16:25 | 31.78286 | -89.72998 | 14104 ft | 404 kts | 156° |
| 2026-04-26 16:25 | 31.75768 | -89.71565 | 13748 ft | 400 kts | 156° |
| 2026-04-26 16:26 | 31.73262 | -89.70146 | 13363 ft | 398 kts | 156° |
| 2026-04-26 16:26 | 31.70809 | -89.68760 | 12988 ft | 395 kts | 156° |
| 2026-04-26 16:26 | 31.68333 | -89.67360 | 12610 ft | 392 kts | 156° |
| 2026-04-26 16:26 | 31.65877 | -89.65971 | 12228 ft | 389 kts | 156° |
| 2026-04-26 16:27 | 31.63506 | -89.64629 | 12038 ft | 387 kts | 156° |
| 2026-04-26 16:27 | 31.61082 | -89.63256 | 12007 ft | 386 kts | 156° |
| 2026-04-26 16:27 | 31.58660 | -89.61885 | 12000 ft | 386 kts | 156° |
| 2026-04-26 16:27 | 31.56264 | -89.60530 | 11982 ft | 386 kts | 156° |
| 2026-04-26 16:28 | 31.53839 | -89.59160 | 12002 ft | 386 kts | 156° |
| 2026-04-26 16:28 | 31.51421 | -89.57793 | 12007 ft | 385 kts | 156° |
| 2026-04-26 16:28 | 31.49023 | -89.56439 | 12013 ft | 382 kts | 156° |
| 2026-04-26 16:28 | 31.46631 | -89.55087 | 12017 ft | 381 kts | 156° |
| 2026-04-26 16:29 | 31.44242 | -89.53739 | 12020 ft | 381 kts | 156° |
| 2026-04-26 16:29 | 31.41857 | -89.52394 | 12022 ft | 381 kts | 156° |
| 2026-04-26 16:29 | 31.39469 | -89.51048 | 12024 ft | 381 kts | 156° |
| 2026-04-26 16:29 | 31.37078 | -89.49702 | 12024 ft | 381 kts | 156° |
| 2026-04-26 16:30 | 31.34723 | -89.48377 | 12021 ft | 381 kts | 156° |
| 2026-04-26 16:30 | 31.32334 | -89.47032 | 12021 ft | 381 kts | 156° |
| 2026-04-26 16:30 | 31.29945 | -89.45688 | 12003 ft | 381 kts | 156° |
| 2026-04-26 16:30 | 31.27556 | -89.44345 | 12007 ft | 381 kts | 156° |
| 2026-04-26 16:31 | 31.25168 | -89.43003 | 12008 ft | 381 kts | 156° |
| 2026-04-26 16:31 | 31.22780 | -89.41663 | 12003 ft | 380 kts | 156° |
| 2026-04-26 16:31 | 31.20394 | -89.40324 | 12006 ft | 380 kts | 156° |
| 2026-04-26 16:31 | 31.18009 | -89.38986 | 12008 ft | 380 kts | 156° |
| 2026-04-26 16:32 | 31.15617 | -89.37646 | 11931 ft | 381 kts | 156° |
| 2026-04-26 16:32 | 31.14038 | -89.36761 | 11807 ft | 379 kts | 156° |
| 2026-04-26 16:32 | 31.10858 | -89.34980 | 11568 ft | 378 kts | 156° |
| 2026-04-26 16:32 | 31.08512 | -89.33667 | 11369 ft | 378 kts | 156° |
| 2026-04-26 16:33 | 31.06143 | -89.32342 | 11199 ft | 377 kts | 156° |
| 2026-04-26 16:33 | 31.03776 | -89.31019 | 11001 ft | 376 kts | 156° |
| 2026-04-26 16:33 | 31.01416 | -89.29702 | 10789 ft | 375 kts | 156° |
| 2026-04-26 16:33 | 30.98973 | -89.28691 | 10668 ft | 367 kts | 171° |
| 2026-04-26 16:34 | 30.96516 | -89.28466 | 10604 ft | 343 kts | 182° |
| 2026-04-26 16:34 | 30.94192 | -89.28594 | 10546 ft | 324 kts | 185° |
| 2026-04-26 16:34 | 30.92067 | -89.28797 | 10490 ft | 299 kts | 186° |
| 2026-04-26 16:34 | 30.90008 | -89.29001 | 10429 ft | 295 kts | 186° |
| 2026-04-26 16:35 | 30.87964 | -89.29193 | 10335 ft | 294 kts | 186° |
| 2026-04-26 16:35 | 30.85922 | -89.29372 | 10000 ft | 294 kts | 185° |
| 2026-04-26 16:35 | 30.83891 | -89.29540 | 9492 ft | 291 kts | 185° |
| 2026-04-26 16:35 | 30.81879 | -89.29700 | 8982 ft | 288 kts | 185° |
| 2026-04-26 16:36 | 30.79887 | -89.29854 | 8508 ft | 286 kts | 184° |
| 2026-04-26 16:36 | 30.77906 | -89.30004 | 8027 ft | 284 kts | 185° |
| 2026-04-26 16:36 | 30.75973 | -89.30149 | 7592 ft | 281 kts | 184° |
| 2026-04-26 16:36 | 30.74074 | -89.30290 | 7209 ft | 279 kts | 185° |
| 2026-04-26 16:37 | 30.72138 | -89.30433 | 6786 ft | 277 kts | 185° |
| 2026-04-26 16:37 | 30.70223 | -89.30575 | 6348 ft | 275 kts | 184° |
| 2026-04-26 16:37 | 30.68322 | -89.30715 | 5899 ft | 272 kts | 185° |
| 2026-04-26 16:37 | 30.66439 | -89.30854 | 5490 ft | 269 kts | 185° |
| 2026-04-26 16:38 | 30.64590 | -89.30990 | 5120 ft | 268 kts | 185° |
| 2026-04-26 16:38 | 30.62738 | -89.31045 | 4738 ft | 266 kts | 176° |
| 2026-04-26 16:38 | 30.60967 | -89.30490 | 4366 ft | 265 kts | 152° |
| 2026-04-26 16:38 | 30.59498 | -89.29207 | 4008 ft | 265 kts | 138° |
| 2026-04-26 16:39 | 30.58205 | -89.27739 | 3656 ft | 252 kts | 135° |
| 2026-04-26 16:39 | 30.57025 | -89.26340 | 3304 ft | 232 kts | 135° |
| 2026-04-26 16:39 | 30.55941 | -89.25051 | 3004 ft | 214 kts | 135° |
| 2026-04-26 16:39 | 30.54941 | -89.23867 | 2715 ft | 202 kts | 135° |
| 2026-04-26 16:40 | 30.53980 | -89.22734 | 2438 ft | 193 kts | 135° |
| 2026-04-26 16:40 | 30.53042 | -89.21630 | 2205 ft | 192 kts | 136° |
| 2026-04-26 16:40 | 30.52113 | -89.20539 | 2031 ft | 188 kts | 136° |
| 2026-04-26 16:40 | 30.51186 | -89.19454 | 2005 ft | 190 kts | 136° |
| 2026-04-26 16:41 | 30.50256 | -89.18365 | 2011 ft | 190 kts | 135° |
| 2026-04-26 16:41 | 30.49324 | -89.17276 | 1997 ft | 190 kts | 136° |
| 2026-04-26 16:41 | 30.48397 | -89.16195 | 2011 ft | 188 kts | 135° |
| 2026-04-26 16:41 | 30.47520 | -89.15186 | 1833 ft | 172 kts | 137° |
| 2026-04-26 16:42 | 30.46679 | -89.14229 | 1618 ft | 179 kts | 136° |
| 2026-04-26 16:42 | 30.45803 | -89.13233 | 1324 ft | 173 kts | 136° |
| 2026-04-26 16:42 | 30.44980 | -89.12262 | 1016 ft | 163 kts | 135° |
| 2026-04-26 16:42 | 30.44193 | -89.11360 | 753 ft | 155 kts | 136° |
| 2026-04-26 16:43 | 30.43429 | -89.10484 | 564 ft | 159 kts | 134° |
| 2026-04-26 16:43 | 30.42648 | -89.09564 | 386 ft | 161 kts | 134° |
| 2026-04-26 16:43 | 30.41878 | -89.08669 | 204 ft | 155 kts | 134° |
| 2026-04-26 16:43 | 30.41171 | -89.07834 | 44 ft | 136 kts | 133° |
| 2026-04-26 16:44 | 30.40699 | -89.07237 | 37 ft | 94 kts | 130° |